Time;durP1;ratioP1;P1;durP2;ratioP2;P2;SDS_P1;SDS_P2;PMS_P1;PMS_P2;Temp;Humidity;BMP_temperature;BMP_pressure;BME280_temperature;BME280_humidity;BME280_pressure;Samples;Min_cycle;Max_cycle;Signal;HPM_P1;HPM_P2
2022/05/09 00:00:54;;;;;;;10.75;3.78;;;;;;;9.35;54.66;101578.63;8615879;33;20459;-72
2022/05/09 00:05:57;;;;;;;6.97;3.15;;;;;;;8.44;57.91;101573.78;8582655;33;20235;-71
2022/05/09 00:11:00;;;;;;;9.82;3.63;;;;;;;8.47;59.17;101565.63;8559457;33;20235;-72
2022/05/09 00:16:06;;;;;;;7.63;4.18;;;;;;;8.71;58.10;101575.00;8594403;33;20156;-71
2022/05/09 00:21:09;;;;;;;9.98;3.63;;;;;;;8.35;58.69;101567.13;8605017;33;20174;-71
2022/05/09 00:26:12;;;;;;;12.32;4.72;;;;;;;8.17;59.28;101569.81;8612751;33;20541;-72
2022/05/09 00:31:16;;;;;;;9.00;3.85;;;;;;;8.23;59.86;101565.06;8613200;33;20606;-71
2022/05/09 00:36:21;;;;;;;9.10;3.30;;;;;;;8.68;59.01;101568.97;8579614;33;20917;-71
2022/05/09 00:41:34;;;;;;;8.52;3.28;;;;;;;9.11;57.87;101561.25;8623433;33;20151;-71
2022/05/09 00:46:41;;;;;;;12.63;4.07;;;;;;;9.23;57.09;101555.19;8611643;33;20144;-71
2022/05/09 00:51:51;;;;;;;8.07;3.72;;;;;;;9.33;56.00;101552.84;8609996;33;20232;-72
2022/05/09 00:57:02;;;;;;;8.02;4.32;;;;;;;9.24;56.89;101563.16;8578389;33;20435;-71
2022/05/09 01:02:07;;;;;;;11.63;3.72;;;;;;;9.24;56.72;101557.78;8577171;33;20702;-72
2022/05/09 01:07:12;;;;;;;9.95;3.83;;;;;;;9.24;56.84;101564.94;8621722;33;20273;-71
2022/05/09 01:12:21;;;;;;;12.70;4.85;;;;;;;9.19;57.06;101562.53;8574633;33;20132;-71
2022/05/09 01:17:25;;;;;;;11.82;3.53;;;;;;;9.06;57.31;101556.13;8591006;33;20660;-71
2022/05/09 01:22:34;;;;;;;9.93;3.78;;;;;;;9.00;57.51;101551.97;8596855;33;20414;-71
2022/05/09 01:27:40;;;;;;;12.25;4.28;;;;;;;9.05;57.37;101546.34;8577266;33;20554;-71
2022/05/09 01:32:49;;;;;;;9.65;3.55;;;;;;;9.16;57.35;101554.69;8550814;33;20428;-71
2022/05/09 01:38:02;;;;;;;7.28;3.78;;;;;;;9.24;57.02;101543.50;8602515;33;20242;-71
2022/05/09 01:43:05;;;;;;;10.60;4.30;;;;;;;8.80;57.79;101552.22;8599625;33;20206;-72
2022/05/09 01:53:32;;;;;;;7.45;3.58;;;;;;;8.83;58.34;101549.34;8628764;33;20182;-71
2022/05/09 01:58:35;;;;;;;7.60;4.10;;;;;;;8.86;57.87;101549.22;8594672;33;20206;-71
2022/05/09 02:03:38;;;;;;;7.75;4.10;;;;;;;8.68;58.57;101544.84;8625954;33;20552;-72
2022/05/09 02:08:42;;;;;;;12.43;4.20;;;;;;;8.76;58.83;101540.81;8614230;33;20162;-71
2022/05/09 02:13:46;;;;;;;10.13;4.30;;;;;;;8.81;58.29;101545.91;8613059;33;20518;-71
2022/05/09 02:18:49;;;;;;;7.97;3.78;;;;;;;8.79;58.45;101543.31;8603912;33;20219;-71
2022/05/09 02:23:54;;;;;;;12.05;4.18;;;;;;;8.58;58.78;101544.47;8593966;33;20146;-72
2022/05/09 02:28:57;;;;;;;11.00;3.92;;;;;;;8.56;58.95;101541.03;8574004;33;20556;-72
2022/05/09 02:34:01;;;;;;;9.98;4.13;;;;;;;8.65;59.31;101542.34;8576022;33;20418;-72
2022/05/09 02:39:06;;;;;;;8.93;4.47;;;;;;;8.55;59.26;101541.97;8613822;33;20248;-73
2022/05/09 02:44:10;;;;;;;7.18;3.80;;;;;;;8.44;59.59;101541.66;8580860;33;20460;-72
2022/05/09 02:49:13;;;;;;;11.93;5.03;;;;;;;8.37;59.64;101539.31;8626860;33;20205;-71
2022/05/09 02:54:18;;;;;;;11.18;4.95;;;;;;;8.29;59.80;101544.22;8615677;33;20975;-72
2022/05/09 02:59:22;;;;;;;8.35;4.20;;;;;;;8.24;59.97;101545.41;8632449;33;20208;-71
2022/05/09 03:04:40;;;;;;;9.82;4.13;;;;;;;8.11;60.40;101546.03;8597065;33;20209;-72
2022/05/09 03:09:50;;;;;;;11.90;4.55;;;;;;;8.05;60.34;101538.34;8574602;33;20856;-71
2022/05/09 03:14:53;;;;;;;10.05;4.93;;;;;;;7.72;61.46;101532.91;8573089;33;21037;-72
2022/05/09 03:19:57;;;;;;;6.47;4.03;;;;;;;7.71;61.66;101536.53;8580283;33;20439;-71
2022/05/09 03:25:05;;;;;;;10.63;4.57;;;;;;;7.71;61.80;101529.38;8620513;33;20453;-72
2022/05/09 03:30:11;;;;;;;10.60;4.10;;;;;;;7.78;61.50;101529.06;8627259;33;20892;-72
2022/05/09 03:35:14;;;;;;;10.63;3.88;;;;;;;7.92;61.06;101524.72;8581081;33;20199;-72
2022/05/09 03:40:20;;;;;;;8.88;4.22;;;;;;;7.90;60.93;101528.44;8624312;33;20564;-72
2022/05/09 03:45:23;;;;;;;15.68;4.93;;;;;;;7.74;61.26;101528.34;8620877;33;20446;-72
2022/05/09 03:50:28;;;;;;;5.40;4.10;;;;;;;7.65;61.76;101526.13;8612967;33;20437;-73
2022/05/09 03:55:33;;;;;;;9.57;4.70;;;;;;;7.71;61.73;101520.50;8613370;33;20308;-73
2022/05/09 04:00:37;;;;;;;11.75;4.47;;;;;;;7.80;61.42;101520.00;8579333;33;20886;-72
2022/05/09 04:05:40;;;;;;;10.48;4.80;;;;;;;7.70;61.66;101524.94;8578107;33;21251;-73
2022/05/09 04:10:46;;;;;;;6.32;4.53;;;;;;;7.64;61.78;101527.09;8578510;33;20483;-72
2022/05/09 04:21:15;;;;;;;10.68;4.57;;;;;;;7.48;63.02;101525.16;8578160;33;20166;-72
2022/05/09 04:26:21;;;;;;;13.10;5.22;;;;;;;7.61;62.59;101521.91;8603078;33;20551;-72
2022/05/09 04:31:24;;;;;;;10.60;4.97;;;;;;;7.62;62.50;101521.81;8623904;33;20155;-72
2022/05/09 04:36:29;;;;;;;8.18;4.70;;;;;;;7.52;63.57;101527.72;8616669;33;20536;-72
2022/05/09 04:41:35;;;;;;;8.82;4.88;;;;;;;7.81;63.25;101534.25;8585271;33;20439;-72
2022/05/09 04:46:38;;;;;;;8.38;4.32;;;;;;;8.00;62.72;101529.66;8584442;33;20225;-72
2022/05/09 04:51:41;;;;;;;10.40;5.18;;;;;;;7.97;62.67;101531.66;8584011;33;20148;-72
2022/05/09 04:56:45;;;;;;;14.77;5.50;;;;;;;8.15;62.46;101530.69;8582724;33;20243;-72
2022/05/09 05:01:49;;;;;;;12.05;6.10;;;;;;;8.25;62.25;101533.75;8583481;33;20942;-72
2022/05/09 05:06:53;;;;;;;11.60;6.68;;;;;;;8.13;62.57;101533.44;8582910;33;20237;-72
2022/05/09 05:11:57;;;;;;;12.80;6.50;;;;;;;8.03;62.51;101532.19;8579226;33;20513;-72
2022/05/09 05:17:00;;;;;;;12.25;6.18;;;;;;;7.81;63.43;101531.56;8586328;33;20585;-72
2022/05/09 05:22:06;;;;;;;13.18;6.25;;;;;;;8.01;63.92;101536.78;8615815;33;20518;-72
2022/05/09 05:27:10;;;;;;;15.20;6.30;;;;;;;8.17;63.79;101537.72;8599302;33;20148;-72
2022/05/09 05:32:15;;;;;;;14.45;6.45;;;;;;;8.28;63.91;101530.91;8613835;33;21000;-72
2022/05/09 05:37:19;;;;;;;11.35;5.95;;;;;;;8.35;63.80;101529.63;8575200;33;21066;-71
2022/05/09 05:42:24;;;;;;;11.38;5.75;;;;;;;8.48;63.52;101525.38;8575967;33;20144;-71
2022/05/09 05:47:27;;;;;;;14.07;6.93;;;;;;;8.63;63.82;101526.34;8570649;33;20403;-72
2022/05/09 05:52:30;;;;;;;6.63;3.78;;;;;;;8.80;65.09;101520.94;8573194;33;20439;-71
2022/05/09 05:57:38;;;;;;;13.05;6.32;;;;;;;9.73;61.91;101509.28;8570482;33;20562;-72
2022/05/09 06:02:41;;;;;;;12.10;4.72;;;;;;;10.60;60.74;101516.53;8570198;33;20419;-71
2022/05/09 06:07:46;;;;;;;10.07;5.43;;;;;;;11.35;57.37;101505.44;8580780;33;20937;-71
2022/05/09 06:12:51;;;;;;;6.68;4.57;;;;;;;10.95;57.39;101517.94;8620790;33;20444;-72
2022/05/09 06:17:54;;;;;;;9.05;5.32;;;;;;;11.33;56.01;101514.59;8584183;33;20774;-71
2022/05/09 06:22:59;;;;;;;13.52;4.53;;;;;;;11.59;57.24;101513.69;8604753;33;20422;-72
2022/05/09 06:28:06;;;;;;;8.52;5.57;;;;;;;11.59;54.38;101516.38;8608854;33;20258;-72
2022/05/09 06:33:10;;;;;;;8.18;4.68;;;;;;;11.95;54.09;101512.16;8579572;33;20154;-72
2022/05/09 06:38:15;;;;;;;11.80;4.82;;;;;;;12.17;52.29;101508.81;8572923;33;20864;-71
2022/05/09 06:43:19;;;;;;;8.20;4.05;;;;;;;12.13;52.87;101505.50;8597202;33;20155;-72
2022/05/09 06:48:22;;;;;;;9.73;4.57;;;;;;;12.46;52.26;101497.88;8603270;33;20450;-72
2022/05/09 06:53:25;;;;;;;8.13;3.97;;;;;;;12.53;49.77;101499.13;8603916;33;20899;-72
2022/05/09 06:58:35;;;;;;;11.85;5.25;;;;;;;12.80;48.71;101507.91;8614534;33;20155;-72
2022/05/09 07:03:38;;;;;;;8.20;3.95;;;;;;;12.84;48.00;101513.97;8626199;33;20544;-72
2022/05/09 07:08:42;;;;;;;10.45;3.97;;;;;;;12.97;48.70;101505.81;8610703;33;20432;-71
2022/05/09 07:13:47;;;;;;;10.30;3.83;;;;;;;13.28;47.18;101504.44;8597083;33;20980;-72
2022/05/09 07:18:50;;;;;;;6.30;3.97;;;;;;;13.56;47.42;101505.94;8591260;33;20167;-72
2022/05/09 07:23:53;;;;;;;9.55;3.60;;;;;;;14.14;46.72;101503.25;8603575;33;20141;-72
2022/05/09 07:28:58;;;;;;;9.88;4.20;;;;;;;14.55;45.32;101507.25;8600837;33;20159;-72
2022/05/09 07:34:01;;;;;;;9.20;3.90;;;;;;;14.96;43.87;101501.19;8605789;33;20688;-72
2022/05/09 07:39:05;;;;;;;8.35;4.43;;;;;;;15.16;44.25;101490.56;8610305;33;20239;-72
2022/05/09 07:44:10;;;;;;;7.23;3.63;;;;;;;15.18;43.01;101489.44;8609190;33;20490;-72
2022/05/09 07:49:13;;;;;;;9.88;3.78;;;;;;;15.56;43.18;101488.13;8617833;33;20246;-72
2022/05/09 07:54:16;;;;;;;8.95;3.55;;;;;;;16.06;42.06;101495.59;8606229;33;20151;-72
2022/05/09 07:59:20;;;;;;;4.05;2.72;;;;;;;16.43;40.80;101498.69;8612558;33;21349;-72
2022/05/09 08:04:24;;;;;;;9.00;3.00;;;;;;;16.73;40.16;101496.94;8605349;33;20598;-72
2022/05/09 08:09:27;;;;;;;6.85;2.83;;;;;;;17.03;39.70;101485.16;8622564;33;20541;-72
2022/05/09 08:14:32;;;;;;;8.95;3.22;;;;;;;17.17;38.29;101484.81;8629071;33;20443;-72
2022/05/09 08:19:35;;;;;;;8.63;3.05;;;;;;;17.24;37.32;101476.94;8631138;33;20234;-72
2022/05/09 08:24:38;;;;;;;7.32;3.10;;;;;;;17.43;37.18;101474.22;8641516;33;20154;-72
2022/05/09 08:29:42;;;;;;;6.25;2.65;;;;;;;17.80;36.74;101468.06;8652512;33;20740;-72
2022/05/09 08:34:45;;;;;;;4.80;2.40;;;;;;;18.41;36.28;101472.22;8654431;28;20524;-74
2022/05/09 08:39:50;;;;;;;6.03;3.08;;;;;;;18.55;35.50;101473.59;8630140;33;20920;-75
2022/05/09 08:45:17;;;;;;;6.55;2.63;;;;;;;18.67;35.81;101476.97;8652593;33;20227;-75
2022/05/09 08:50:30;;;;;;;6.25;2.75;;;;;;;19.20;34.39;101474.38;8637666;33;20422;-76
2022/05/09 08:55:38;;;;;;;6.38;2.50;;;;;;;19.20;34.12;101470.81;8657677;33;20669;-75
2022/05/09 09:00:42;;;;;;;5.88;2.22;;;;;;;19.49;34.05;101470.53;8626542;33;20195;-75
2022/05/09 09:05:48;;;;;;;6.93;2.60;;;;;;;19.67;33.52;101462.41;8586236;33;21013;-74
2022/05/09 09:11:06;;;;;;;8.77;2.80;;;;;;;19.49;33.10;101465.09;8578352;33;20553;-75
2022/05/09 09:16:24;;;;;;;5.88;2.78;;;;;;;19.90;33.11;101455.41;8575398;33;20986;-75
2022/05/09 09:21:42;;;;;;;4.50;2.45;;;;;;;20.33;32.66;101452.81;8596968;33;20994;-75
2022/05/09 09:26:59;;;;;;;6.53;2.63;;;;;;;20.64;33.54;101454.97;8597146;33;20511;-76
2022/05/09 09:32:09;;;;;;;3.40;2.30;;;;;;;20.74;33.18;101452.97;8574693;33;21044;-75
2022/05/09 09:37:21;;;;;;;4.28;2.50;;;;;;;21.20;33.08;101440.66;8548492;33;20652;-76
2022/05/09 09:42:24;;;;;;;7.10;3.10;;;;;;;21.42;32.60;101450.06;8587220;33;20659;-75
2022/05/09 09:47:30;;;;;;;5.85;2.60;;;;;;;21.51;32.31;101436.41;8597815;33;20246;-75
2022/05/09 09:52:56;;;;;;;4.35;3.00;;;;;;;21.53;33.01;101432.47;8592149;33;21028;-75
2022/05/09 09:58:21;;;;;;;3.30;2.15;;;;;;;21.73;32.94;101422.03;8614278;33;20401;-75
2022/05/09 10:03:32;;;;;;;4.20;2.60;;;;;;;21.93;32.40;101427.16;8636768;33;20183;-75
2022/05/09 10:08:38;;;;;;;7.15;2.78;;;;;;;22.15;33.42;101425.56;8621161;33;20493;-75
2022/05/09 10:13:45;;;;;;;4.25;2.47;;;;;;;22.30;32.53;101410.13;8569180;33;20945;-75
2022/05/09 10:18:50;;;;;;;5.80;2.85;;;;;;;22.30;31.83;101412.88;8599340;33;20242;-75
2022/05/09 10:29:19;;;;;;;4.03;2.70;;;;;;;22.47;32.99;101397.25;8567737;33;20440;-75
2022/05/09 10:34:30;;;;;;;4.90;2.55;;;;;;;22.73;33.14;101394.19;8579617;33;20207;-74
2022/05/09 10:39:39;;;;;;;7.28;2.97;;;;;;;22.74;32.71;101382.22;8618666;33;20174;-75
2022/05/09 10:44:52;;;;;;;3.20;2.90;;;;;;;22.85;32.59;101378.22;8580704;33;20776;-75
2022/05/09 10:50:10;;;;;;;5.65;2.72;;;;;;;23.00;32.47;101368.16;8596320;33;21069;-75
2022/05/09 10:55:22;;;;;;;6.18;2.90;;;;;;;23.29;32.77;101363.88;8580447;33;21007;-75
2022/05/09 11:00:27;;;;;;;7.07;3.00;;;;;;;23.69;32.76;101361.75;8584782;33;20227;-74
2022/05/09 11:05:51;;;;;;;6.13;2.80;;;;;;;23.81;32.44;101357.56;8618267;33;20184;-75
2022/05/09 11:11:07;;;;;;;4.97;2.60;;;;;;;24.49;31.72;101353.66;8579854;33;20447;-73
2022/05/09 11:16:24;;;;;;;3.83;2.40;;;;;;;24.72;30.93;101334.25;8629618;33;20492;-74
2022/05/09 11:21:41;;;;;;;5.78;2.90;;;;;;;24.07;31.08;101346.09;8634510;33;20594;-73
2022/05/09 11:26:54;;;;;;;4.60;2.67;;;;;;;23.97;31.88;101349.16;8579215;33;20415;-73
2022/05/09 11:32:17;;;;;;;5.88;2.78;;;;;;;24.26;32.29;101334.50;8621197;33;20179;-76
2022/05/09 11:37:35;;;;;;;4.70;2.88;;;;;;;24.48;32.17;101315.38;8580960;33;20529;-75
2022/05/09 11:48:33;;;;;;;3.92;2.75;;;;;;;25.01;30.62;101309.56;8581185;33;20227;-75
2022/05/09 11:53:45;;;;;;;6.65;2.65;;;;;;;25.18;30.27;101311.03;8597387;33;20424;-75
2022/05/09 11:58:48;;;;;;;6.45;3.50;;;;;;;26.06;29.17;101304.00;8645590;33;20156;-75
2022/05/09 12:03:53;;;;;;;4.93;3.17;;;;;;;25.96;29.74;101297.19;8637328;33;20448;-74
2022/05/09 12:09:01;;;;;;;4.50;3.00;;;;;;;26.31;28.98;101300.75;8625567;33;20422;-74
2022/05/09 12:14:04;;;;;;;4.10;2.83;;;;;;;26.60;28.07;101282.16;8603345;33;20152;-75
2022/05/09 12:19:15;;;;;;;7.53;3.30;;;;;;;26.24;29.15;101277.84;8612386;33;20418;-75
2022/05/09 12:24:32;;;;;;;4.20;2.92;;;;;;;26.40;28.94;101269.19;8653444;33;20555;-74
2022/05/09 12:29:52;;;;;;;4.20;2.70;;;;;;;26.47;29.53;101271.97;8610198;33;20163;-74
2022/05/09 12:35:01;;;;;;;5.28;3.10;;;;;;;26.25;28.96;101269.38;8630503;33;20497;-74
2022/05/09 12:40:26;;;;;;;5.80;3.08;;;;;;;25.51;29.93;101261.78;8649478;33;20208;-74
2022/05/09 12:45:30;;;;;;;4.90;2.80;;;;;;;26.62;30.92;101250.59;8659860;33;21850;-74
2022/05/09 12:50:39;;;;;;;4.07;2.92;;;;;;;26.74;29.36;101250.78;8629023;33;20577;-74
2022/05/09 12:55:56;;;;;;;5.50;2.90;;;;;;;26.99;29.07;101234.53;8623005;33;20513;-75
2022/05/09 13:01:04;;;;;;;6.65;3.03;;;;;;;27.68;28.41;101232.31;8597696;33;20786;-74
2022/05/09 13:06:31;;;;;;;8.15;3.70;;;;;;;27.01;28.14;101235.16;8604132;33;20541;-74
2022/05/09 13:11:36;;;;;;;6.22;3.15;;;;;;;27.25;27.56;101235.56;8599188;33;20480;-74
2022/05/09 13:16:42;;;;;;;4.80;3.17;;;;;;;27.49;27.20;101223.88;8605339;33;20320;-74
2022/05/09 13:21:49;;;;;;;3.20;2.92;;;;;;;27.67;28.31;101211.28;8617977;33;20444;-74
2022/05/09 13:26:58;;;;;;;4.38;2.88;;;;;;;27.67;28.38;101198.31;8623146;33;20491;-75
2022/05/09 13:32:01;;;;;;;3.75;2.90;;;;;;;26.94;28.52;101188.31;8603798;33;20238;-75
2022/05/09 13:37:11;;;;;;;5.87;3.33;;;;;;;27.93;29.14;101177.19;8596123;33;20828;-75
2022/05/09 13:42:22;;;;;;;5.32;3.20;;;;;;;27.88;27.64;101164.03;8648415;33;20422;-75
2022/05/09 13:47:27;;;;;;;4.65;3.10;;;;;;;27.32;27.70;101181.25;8621061;33;20501;-75
2022/05/09 13:52:35;;;;;;;5.40;3.17;;;;;;;25.91;28.89;101184.94;8595905;33;20592;-74
2022/05/09 13:57:42;;;;;;;4.05;2.83;;;;;;;25.05;30.88;101170.75;8598967;33;20598;-75
2022/05/09 14:02:46;;;;;;;4.32;3.17;;;;;;;27.08;28.56;101157.97;8588735;33;20266;-75
2022/05/09 14:07:52;;;;;;;5.97;3.40;;;;;;;26.93;27.92;101150.78;8617338;33;20840;-75
2022/05/09 14:12:58;;;;;;;5.53;3.28;;;;;;;27.51;27.18;101155.53;8646657;33;20233;-74
2022/05/09 14:18:08;;;;;;;7.50;3.00;;;;;;;27.00;29.57;101148.00;8661931;33;20451;-75
2022/05/09 14:23:17;;;;;;;3.42;3.10;;;;;;;26.95;28.26;101143.13;8635506;33;20256;-74
2022/05/09 14:33:46;;;;;;;4.97;3.08;;;;;;;28.88;27.73;101136.56;8658608;33;20531;-76
2022/05/09 14:38:55;;;;;;;3.78;3.00;;;;;;;26.91;29.71;101130.00;8660193;33;20549;-76
2022/05/09 14:44:19;;;;;;;3.33;3.03;;;;;;;25.85;30.92;101122.47;8661544;33;21051;-75
2022/05/09 14:49:22;;;;;;;4.80;2.88;;;;;;;27.75;27.39;101120.78;8648186;33;20566;-76
2022/05/09 14:54:26;;;;;;;5.22;2.90;;;;;;;27.71;27.42;101111.28;8646724;33;20496;-76
2022/05/09 14:59:31;;;;;;;4.20;3.00;;;;;;;26.32;29.08;101117.06;8642122;33;20412;-76
2022/05/09 15:04:35;;;;;;;4.18;2.83;;;;;;;26.92;28.84;101115.16;8648591;33;20182;-76
2022/05/09 15:09:38;;;;;;;5.10;3.22;;;;;;;28.37;27.03;101109.16;8642822;33;20237;-76
2022/05/09 15:14:42;;;;;;;4.30;2.95;;;;;;;28.93;26.27;101094.38;8654407;33;20204;-75
2022/05/09 15:19:45;;;;;;;4.32;2.90;;;;;;;29.04;26.59;101096.38;8662056;33;20466;-76
2022/05/09 15:24:48;;;;;;;3.72;2.75;;;;;;;29.40;26.05;101089.16;8654616;33;20563;-77
2022/05/09 15:29:54;;;;;;;4.72;3.20;;;;;;;28.91;25.64;101072.50;8652529;33;20470;-76
2022/05/09 15:34:57;;;;;;;4.95;2.95;;;;;;;29.19;26.24;101071.16;8620672;33;20513;-76
2022/05/09 15:40:00;;;;;;;5.00;3.22;;;;;;;29.15;25.92;101072.66;8636495;33;20505;-76
2022/05/09 15:45:10;;;;;;;6.32;3.10;;;;;;;27.75;27.01;101065.59;8655064;33;20990;-75
2022/05/09 15:50:16;;;;;;;4.45;2.90;;;;;;;25.60;29.76;101062.50;8605159;33;20144;-75
2022/05/09 15:55:20;;;;;;;4.35;2.90;;;;;;;27.54;29.20;101060.44;8602050;33;20475;-76
2022/05/09 16:00:27;;;;;;;6.45;3.10;;;;;;;28.52;27.59;101048.03;8613114;33;20277;-75
2022/05/09 16:11:23;;;;;;;4.30;2.97;;;;;;;28.19;27.15;101043.63;8603542;33;20451;-74
2022/05/09 16:16:24;;;;;;;5.35;2.80;;;;;;;27.85;25.87;101045.78;8632871;33;20204;-75
2022/05/09 16:21:27;;;;;;;4.80;3.35;;;;;;;27.91;25.77;101039.38;8561474;33;20148;-75
2022/05/09 16:26:33;;;;;;;4.85;3.13;;;;;;;27.80;26.10;101034.56;8593860;33;20529;-76
2022/05/09 16:31:38;;;;;;;4.82;3.22;;;;;;;27.09;27.29;101041.09;8593753;33;20480;-76
2022/05/09 16:36:44;;;;;;;4.32;2.90;;;;;;;27.08;27.27;101029.22;8619189;33;20477;-76
2022/05/09 16:41:47;;;;;;;4.75;3.40;;;;;;;27.72;26.92;101026.56;8634221;33;20193;-76
2022/05/09 16:46:52;;;;;;;6.68;3.33;;;;;;;28.15;26.23;101020.31;8641409;33;20969;-75
2022/05/09 16:51:56;;;;;;;4.82;3.13;;;;;;;27.71;26.48;101022.13;8638744;33;20436;-76
2022/05/09 16:57:19;;;;;;;3.70;3.40;;;;;;;28.79;25.39;101010.75;8641750;33;20561;-76
2022/05/09 17:02:26;;;;;;;5.05;3.10;;;;;;;31.32;23.34;101007.47;8662053;33;20524;-76
2022/05/09 17:07:30;;;;;;;5.65;2.80;;;;;;;32.78;21.74;101010.47;8652064;33;20722;-76
2022/05/09 17:12:37;;;;;;;7.03;3.03;;;;;;;33.30;21.12;101004.44;8606453;33;20152;-76
2022/05/09 17:17:44;;;;;;;4.10;2.60;;;;;;;32.72;22.07;101001.19;8592002;33;20256;-76
2022/05/09 17:22:48;;;;;;;5.53;2.97;;;;;;;32.47;22.17;100990.50;8661309;33;20431;-76
2022/05/09 17:27:52;;;;;;;4.82;3.22;;;;;;;32.66;22.28;100994.69;8658883;33;20213;-76
2022/05/09 17:32:57;;;;;;;4.68;2.70;;;;;;;31.57;23.24;100998.75;8654685;33;20686;-76
2022/05/09 17:38:01;;;;;;;4.45;3.05;;;;;;;30.66;23.58;100992.16;8621825;33;21289;-77
2022/05/09 17:43:09;;;;;;;5.30;2.67;;;;;;;28.22;26.05;100988.81;8647802;33;20438;-76
2022/05/09 17:48:15;;;;;;;3.80;3.00;;;;;;;27.06;27.82;100989.97;8632343;33;20150;-76
2022/05/09 17:53:18;;;;;;;3.05;2.75;;;;;;;26.66;30.05;100994.78;8662914;33;21077;-76
2022/05/09 17:58:28;;;;;;;3.88;2.72;;;;;;;25.24;32.02;100995.97;8651784;33;20545;-76
2022/05/09 18:03:32;;;;;;;3.55;2.60;;;;;;;23.80;33.39;100988.25;8603125;33;20191;-76
2022/05/09 18:08:36;;;;;;;3.33;2.70;;;;;;;23.17;35.54;101002.53;8633417;33;20854;-75
2022/05/09 18:13:41;;;;;;;2.83;2.58;;;;;;;22.50;35.98;101002.69;8627175;33;20254;-75
2022/05/09 18:18:49;;;;;;;5.47;3.20;;;;;;;22.19;36.89;101008.25;8615153;33;20937;-76
2022/05/09 18:23:59;;;;;;;3.78;2.88;;;;;;;22.06;36.16;101001.56;8581448;33;20502;-76
2022/05/09 18:29:04;;;;;;;4.38;2.95;;;;;;;21.89;37.59;101011.78;8576953;33;20508;-77
2022/05/09 18:34:13;;;;;;;5.38;3.15;;;;;;;21.61;37.97;101010.59;8586755;33;21038;-76
2022/05/09 18:39:21;;;;;;;6.45;3.17;;;;;;;21.36;37.66;101008.03;8585898;33;20131;-77
2022/05/09 18:44:25;;;;;;;3.72;3.42;;;;;;;21.23;37.63;101005.91;8617286;33;20154;-75
2022/05/09 18:54:50;;;;;;;3.65;2.85;;;;;;;20.89;39.37;101006.19;8583419;33;20427;-75
2022/05/09 18:59:53;;;;;;;5.32;3.53;;;;;;;20.61;40.05;101010.41;8572031;33;20432;-75
2022/05/09 19:04:58;;;;;;;4.57;3.17;;;;;;;20.39;40.33;101006.53;8616878;33;20428;-73
2022/05/09 19:10:07;;;;;;;5.22;3.28;;;;;;;20.29;41.06;101004.81;8605488;33;20415;-75
2022/05/09 19:15:12;;;;;;;5.20;3.80;;;;;;;20.16;41.60;101000.91;8643691;33;20154;-75
2022/05/09 19:20:17;;;;;;;6.60;4.43;;;;;;;20.02;42.79;101005.19;8641778;33;20647;-75
2022/05/09 19:25:20;;;;;;;5.10;3.40;;;;;;;19.86;42.70;101001.47;8651548;33;20143;-75
2022/05/09 19:30:23;;;;;;;3.95;3.50;;;;;;;19.74;43.33;100996.50;8652488;33;20995;-75
2022/05/09 19:35:29;;;;;;;8.30;4.18;;;;;;;19.68;43.13;100998.88;8656610;33;21021;-73
2022/05/09 19:40:34;;;;;;;5.43;3.58;;;;;;;19.56;43.36;101002.13;8657483;33;20429;-74
2022/05/09 19:45:41;;;;;;;5.60;3.90;;;;;;;19.46;43.52;100994.91;8665143;33;20539;-75
2022/05/09 19:50:48;;;;;;;8.02;3.92;;;;;;;19.34;43.82;100996.25;8630008;33;21095;-74
2022/05/09 19:55:51;;;;;;;5.88;3.88;;;;;;;19.27;43.76;100994.38;8579886;33;20435;-75
2022/05/09 20:00:55;;;;;;;5.20;3.63;;;;;;;19.21;43.74;100994.00;8593770;33;20207;-74
2022/05/09 20:06:00;;;;;;;6.50;3.88;;;;;;;19.06;43.85;100986.63;8618263;33;20159;-74
2022/05/09 20:11:06;;;;;;;6.13;3.78;;;;;;;18.90;44.41;100984.75;8612158;33;20444;-74
2022/05/09 20:16:11;;;;;;;3.58;3.25;;;;;;;18.74;44.77;100990.94;8579522;33;20691;-74
2022/05/09 20:21:22;;;;;;;5.72;3.90;;;;;;;18.71;44.84;100983.94;8602238;33;20639;-74
2022/05/09 20:31:49;;;;;;;6.00;4.20;;;;;;;18.55;45.26;100992.88;8614818;33;20418;-74
2022/05/09 20:36:55;;;;;;;4.90;4.10;;;;;;;18.41;45.76;100985.31;8611186;33;20555;-74
2022/05/09 20:41:58;;;;;;;4.82;3.67;;;;;;;18.24;46.24;100989.81;8624288;33;20619;-74
2022/05/09 20:47:02;;;;;;;5.38;4.22;;;;;;;18.19;46.68;100994.03;8626459;33;20222;-74
2022/05/09 20:52:08;;;;;;;4.82;4.25;;;;;;;18.09;47.08;100985.94;8616554;33;20147;-75
2022/05/09 20:57:15;;;;;;;5.53;4.00;;;;;;;18.00;47.18;100976.88;8589584;33;20191;-74
2022/05/09 21:02:19;;;;;;;6.13;4.45;;;;;;;18.00;47.38;100982.31;8579307;33;20272;-74
2022/05/09 21:07:25;;;;;;;8.07;4.57;;;;;;;17.84;47.74;100984.88;8594434;33;20861;-75
2022/05/09 21:12:29;;;;;;;8.18;4.75;;;;;;;17.67;48.54;100984.75;8580936;33;20235;-74
2022/05/09 21:17:32;;;;;;;5.18;4.40;;;;;;;17.63;48.95;100982.50;8605793;33;20462;-74
2022/05/09 21:22:42;;;;;;;7.53;4.40;;;;;;;17.61;49.02;100988.09;8608011;33;20425;-74
2022/05/09 21:27:45;;;;;;;10.02;4.95;;;;;;;17.51;49.34;100979.16;8605331;33;20459;-74
2022/05/09 21:32:48;;;;;;;5.72;4.57;;;;;;;17.55;49.47;100987.84;8602750;33;21075;-74
2022/05/09 21:37:53;;;;;;;7.75;5.53;;;;;;;17.51;49.19;100989.19;8618278;33;20910;-74
2022/05/09 21:42:56;;;;;;;6.97;5.50;;;;;;;17.22;50.16;100980.25;8578832;33;20554;-74
2022/05/09 21:48:00;;;;;;;7.03;4.93;;;;;;;16.94;50.54;100976.66;8608954;33;21278;-74
2022/05/09 21:53:06;;;;;;;8.38;5.30;;;;;;;16.93;50.63;100974.97;8598776;33;20148;-74
2022/05/09 21:58:10;;;;;;;10.00;6.07;;;;;;;16.74;50.99;100965.06;8612692;33;20442;-74
2022/05/09 22:03:20;;;;;;;9.23;6.30;;;;;;;16.65;51.00;100955.13;8601235;33;20441;-74
2022/05/09 22:08:24;;;;;;;10.15;6.03;;;;;;;16.72;50.92;100950.78;8602494;33;20411;-73
2022/05/09 22:13:28;;;;;;;9.85;6.45;;;;;;;16.59;51.27;100961.13;8598323;33;20952;-75
2022/05/09 22:18:32;;;;;;;11.25;6.85;;;;;;;16.57;51.28;100952.31;8594619;33;20466;-75
2022/05/09 22:23:36;;;;;;;9.32;6.07;;;;;;;16.48;51.79;100945.94;8585308;33;20533;-75
2022/05/09 22:28:40;;;;;;;10.85;7.25;;;;;;;16.34;52.22;100947.22;8609864;33;20937;-75
2022/05/09 22:33:43;;;;;;;11.90;6.43;;;;;;;16.09;52.46;100946.00;8611108;33;20152;-75
2022/05/09 22:38:47;;;;;;;8.00;5.65;;;;;;;16.10;52.69;100933.34;8600035;33;20235;-75
2022/05/09 22:43:51;;;;;;;6.60;5.35;;;;;;;16.12;52.67;100936.72;8616968;33;20461;-75
2022/05/09 22:48:55;;;;;;;7.03;5.03;;;;;;;16.03;52.42;100929.50;8626795;33;20715;-75
2022/05/09 22:54:00;;;;;;;9.07;5.25;;;;;;;16.00;52.36;100933.34;8573257;33;20432;-74
2022/05/09 22:59:04;;;;;;;6.85;5.88;;;;;;;16.01;52.46;100921.50;8576950;33;20483;-75
2022/05/09 23:04:11;;;;;;;8.25;4.80;;;;;;;15.81;52.76;100917.13;8597171;33;20175;-75
2022/05/09 23:09:19;;;;;;;7.55;5.30;;;;;;;15.60;53.14;100920.84;8573035;33;20238;-74
2022/05/09 23:14:23;;;;;;;7.03;5.47;;;;;;;15.54;53.41;100915.19;8580828;33;20566;-74
2022/05/09 23:19:29;;;;;;;7.03;5.57;;;;;;;15.68;53.41;100920.16;8607722;33;20152;-74
2022/05/09 23:24:33;;;;;;;8.38;5.93;;;;;;;15.75;52.87;100918.56;8594318;33;20420;-74
2022/05/09 23:29:37;;;;;;;7.05;5.45;;;;;;;15.75;52.52;100918.56;8600703;33;20510;-74
2022/05/09 23:34:40;;;;;;;11.43;5.55;;;;;;;15.51;53.71;100913.59;8608685;33;20500;-74
2022/05/09 23:39:44;;;;;;;7.38;5.32;;;;;;;15.61;53.50;100908.19;8595165;33;20234;-74
2022/05/09 23:44:50;;;;;;;7.13;5.22;;;;;;;15.60;53.00;100907.31;8607332;33;20408;-74
2022/05/09 23:49:54;;;;;;;6.72;5.18;;;;;;;15.61;53.28;100905.50;8606938;33;20452;-74
2022/05/09 23:54:58;;;;;;;5.90;5.30;;;;;;;15.58;53.39;100898.50;8592899;33;20170;-74
